sensor_id;sensor_type;location;lat;lon;timestamp;temperature;humidity
19930;DHT22;10127;47.780;9.606;2023-11-22T00:00:27;8.00;99.90
19930;DHT22;10127;47.780;9.606;2023-11-22T00:02:53;8.00;99.90
19930;DHT22;10127;47.780;9.606;2023-11-22T00:05:19;8.00;99.90
19930;DHT22;10127;47.780;9.606;2023-11-22T00:07:44;8.00;99.90
19930;DHT22;10127;47.780;9.606;2023-11-22T00:10:10;7.90;99.90
19930;DHT22;10127;47.780;9.606;2023-11-22T00:12:35;7.90;99.90
19930;DHT22;10127;47.780;9.606;2023-11-22T00:15:05;7.80;99.90
19930;DHT22;10127;47.780;9.606;2023-11-22T00:17:32;7.70;99.90
19930;DHT22;10127;47.780;9.606;2023-11-22T00:19:58;7.70;99.90
19930;DHT22;10127;47.780;9.606;2023-11-22T00:22:28;7.70;99.90
19930;DHT22;10127;47.780;9.606;2023-11-22T00:24:54;7.70;99.90
19930;DHT22;10127;47.780;9.606;2023-11-22T00:27:19;7.80;99.90
19930;DHT22;10127;47.780;9.606;2023-11-22T00:29:45;7.80;99.90
19930;DHT22;10127;47.780;9.606;2023-11-22T00:32:13;7.70;99.90
19930;DHT22;10127;47.780;9.606;2023-11-22T00:34:39;7.70;99.90
19930;DHT22;10127;47.780;9.606;2023-11-22T00:37:05;7.60;99.90
19930;DHT22;10127;47.780;9.606;2023-11-22T00:39:31;7.40;99.90
19930;DHT22;10127;47.780;9.606;2023-11-22T00:41:57;7.30;99.90
19930;DHT22;10127;47.780;9.606;2023-11-22T00:44:23;7.20;99.90
19930;DHT22;10127;47.780;9.606;2023-11-22T00:46:48;7.10;99.90
19930;DHT22;10127;47.780;9.606;2023-11-22T00:49:14;7.20;99.90
19930;DHT22;10127;47.780;9.606;2023-11-22T00:51:39;7.20;99.90
19930;DHT22;10127;47.780;9.606;2023-11-22T00:54:05;7.20;99.90
19930;DHT22;10127;47.780;9.606;2023-11-22T00:56:31;7.30;99.90
19930;DHT22;10127;47.780;9.606;2023-11-22T00:58:57;7.40;99.90
19930;DHT22;10127;47.780;9.606;2023-11-22T01:01:25;7.50;99.90
19930;DHT22;10127;47.780;9.606;2023-11-22T01:03:51;7.40;99.90
19930;DHT22;10127;47.780;9.606;2023-11-22T01:06:17;7.40;99.90
19930;DHT22;10127;47.780;9.606;2023-11-22T01:08:43;7.20;99.90
19930;DHT22;10127;47.780;9.606;2023-11-22T01:11:09;7.20;99.90
19930;DHT22;10127;47.780;9.606;2023-11-22T01:13:35;7.20;99.90
19930;DHT22;10127;47.780;9.606;2023-11-22T01:16:07;7.20;99.90
19930;DHT22;10127;47.780;9.606;2023-11-22T01:18:33;7.10;99.90
19930;DHT22;10127;47.780;9.606;2023-11-22T01:20:58;7.20;99.90
19930;DHT22;10127;47.780;9.606;2023-11-22T01:23:24;7.40;99.90
19930;DHT22;10127;47.780;9.606;2023-11-22T01:25:49;7.40;99.90
19930;DHT22;10127;47.780;9.606;2023-11-22T01:28:16;7.40;99.90
19930;DHT22;10127;47.780;9.606;2023-11-22T01:30:43;7.50;99.90
19930;DHT22;10127;47.780;9.606;2023-11-22T01:33:14;7.60;99.90
19930;DHT22;10127;47.780;9.606;2023-11-22T01:35:39;7.80;99.90
19930;DHT22;10127;47.780;9.606;2023-11-22T01:38:05;7.70;99.90
19930;DHT22;10127;47.780;9.606;2023-11-22T01:40:31;7.50;99.90
19930;DHT22;10127;47.780;9.606;2023-11-22T01:42:58;7.50;99.90
19930;DHT22;10127;47.780;9.606;2023-11-22T01:45:23;7.70;99.90
19930;DHT22;10127;47.780;9.606;2023-11-22T01:47:49;7.80;99.90
19930;DHT22;10127;47.780;9.606;2023-11-22T01:50:15;7.90;99.90
19930;DHT22;10127;47.780;9.606;2023-11-22T01:52:41;8.00;99.90
19930;DHT22;10127;47.780;9.606;2023-11-22T01:55:08;8.00;99.90
19930;DHT22;10127;47.780;9.606;2023-11-22T01:57:35;7.90;99.90
19930;DHT22;10127;47.780;9.606;2023-11-22T02:00:02;7.90;99.90
19930;DHT22;10127;47.780;9.606;2023-11-22T02:02:30;7.90;99.90
19930;DHT22;10127;47.780;9.606;2023-11-22T02:04:56;7.90;99.90
19930;DHT22;10127;47.780;9.606;2023-11-22T02:07:22;7.80;99.90
19930;DHT22;10127;47.780;9.606;2023-11-22T02:09:47;7.80;99.90
19930;DHT22;10127;47.780;9.606;2023-11-22T02:12:14;7.80;99.90
19930;DHT22;10127;47.780;9.606;2023-11-22T02:14:40;7.70;99.90
19930;DHT22;10127;47.780;9.606;2023-11-22T02:17:05;7.80;99.90
19930;DHT22;10127;47.780;9.606;2023-11-22T02:19:31;7.80;99.90
19930;DHT22;10127;47.780;9.606;2023-11-22T02:21:57;7.80;99.90
19930;DHT22;10127;47.780;9.606;2023-11-22T02:24:22;7.80;99.90
19930;DHT22;10127;47.780;9.606;2023-11-22T02:26:48;7.80;99.90
19930;DHT22;10127;47.780;9.606;2023-11-22T02:29:14;7.90;99.90
19930;DHT22;10127;47.780;9.606;2023-11-22T02:31:41;7.80;99.90
19930;DHT22;10127;47.780;9.606;2023-11-22T02:34:08;7.80;99.90
19930;DHT22;10127;47.780;9.606;2023-11-22T02:36:34;7.80;99.90
19930;DHT22;10127;47.780;9.606;2023-11-22T02:39:00;7.80;99.90
19930;DHT22;10127;47.780;9.606;2023-11-22T02:41:27;7.80;99.90
19930;DHT22;10127;47.780;9.606;2023-11-22T02:43:55;7.80;99.90
19930;DHT22;10127;47.780;9.606;2023-11-22T02:46:21;7.80;99.90
19930;DHT22;10127;47.780;9.606;2023-11-22T02:48:46;7.60;99.90
19930;DHT22;10127;47.780;9.606;2023-11-22T02:51:12;7.40;99.90
19930;DHT22;10127;47.780;9.606;2023-11-22T02:53:39;7.40;99.90
19930;DHT22;10127;47.780;9.606;2023-11-22T02:56:09;7.40;99.90
19930;DHT22;10127;47.780;9.606;2023-11-22T02:58:35;7.40;99.90
19930;DHT22;10127;47.780;9.606;2023-11-22T03:01:00;7.40;99.90
19930;DHT22;10127;47.780;9.606;2023-11-22T03:03:26;7.50;99.90
19930;DHT22;10127;47.780;9.606;2023-11-22T03:05:52;7.40;99.90
19930;DHT22;10127;47.780;9.606;2023-11-22T03:08:18;7.50;99.90
19930;DHT22;10127;47.780;9.606;2023-11-22T03:10:44;7.60;99.90
19930;DHT22;10127;47.780;9.606;2023-11-22T03:13:09;7.60;99.90
19930;DHT22;10127;47.780;9.606;2023-11-22T03:15:35;7.60;99.90
19930;DHT22;10127;47.780;9.606;2023-11-22T03:18:01;7.50;99.90
19930;DHT22;10127;47.780;9.606;2023-11-22T03:20:27;7.60;99.90
19930;DHT22;10127;47.780;9.606;2023-11-22T03:22:53;7.60;99.90
19930;DHT22;10127;47.780;9.606;2023-11-22T03:25:18;7.60;99.90
19930;DHT22;10127;47.780;9.606;2023-11-22T03:27:44;7.60;99.90
19930;DHT22;10127;47.780;9.606;2023-11-22T03:30:11;7.50;99.90
19930;DHT22;10127;47.780;9.606;2023-11-22T03:32:43;7.50;99.90
19930;DHT22;10127;47.780;9.606;2023-11-22T03:35:10;7.50;99.90
19930;DHT22;10127;47.780;9.606;2023-11-22T03:37:36;7.60;99.90
19930;DHT22;10127;47.780;9.606;2023-11-22T03:40:08;7.60;99.90
19930;DHT22;10127;47.780;9.606;2023-11-22T03:42:36;7.60;99.90
19930;DHT22;10127;47.780;9.606;2023-11-22T03:45:03;7.60;99.90
19930;DHT22;10127;47.780;9.606;2023-11-22T03:47:29;7.70;99.90
19930;DHT22;10127;47.780;9.606;2023-11-22T03:49:54;7.70;99.90
19930;DHT22;10127;47.780;9.606;2023-11-22T03:52:20;7.70;99.90
19930;DHT22;10127;47.780;9.606;2023-11-22T03:54:45;7.70;99.90
19930;DHT22;10127;47.780;9.606;2023-11-22T03:57:11;7.70;99.90
19930;DHT22;10127;47.780;9.606;2023-11-22T03:59:37;7.60;99.90
19930;DHT22;10127;47.780;9.606;2023-11-22T04:02:02;7.50;99.90
19930;DHT22;10127;47.780;9.606;2023-11-22T04:04:28;7.50;99.90
19930;DHT22;10127;47.780;9.606;2023-11-22T04:06:59;7.50;99.90
19930;DHT22;10127;47.780;9.606;2023-11-22T04:09:38;7.40;99.90
19930;DHT22;10127;47.780;9.606;2023-11-22T04:12:11;7.30;99.90
19930;DHT22;10127;47.780;9.606;2023-11-22T04:14:36;7.30;99.90
19930;DHT22;10127;47.780;9.606;2023-11-22T04:17:02;7.30;99.90
19930;DHT22;10127;47.780;9.606;2023-11-22T04:19:27;7.40;99.90
19930;DHT22;10127;47.780;9.606;2023-11-22T04:21:53;7.30;99.90
19930;DHT22;10127;47.780;9.606;2023-11-22T04:24:19;7.30;99.90
19930;DHT22;10127;47.780;9.606;2023-11-22T04:26:45;7.40;99.90
19930;DHT22;10127;47.780;9.606;2023-11-22T04:29:11;7.30;99.90
19930;DHT22;10127;47.780;9.606;2023-11-22T04:31:36;7.40;99.90
19930;DHT22;10127;47.780;9.606;2023-11-22T04:34:02;7.40;99.90
19930;DHT22;10127;47.780;9.606;2023-11-22T04:36:28;7.40;99.90
19930;DHT22;10127;47.780;9.606;2023-11-22T04:38:54;7.30;99.90
19930;DHT22;10127;47.780;9.606;2023-11-22T04:41:20;7.20;99.90
19930;DHT22;10127;47.780;9.606;2023-11-22T04:43:46;7.20;99.90
19930;DHT22;10127;47.780;9.606;2023-11-22T04:46:11;7.20;99.90
19930;DHT22;10127;47.780;9.606;2023-11-22T04:48:38;7.30;99.90
19930;DHT22;10127;47.780;9.606;2023-11-22T04:51:05;7.40;99.90
19930;DHT22;10127;47.780;9.606;2023-11-22T04:53:31;7.40;99.90
19930;DHT22;10127;47.780;9.606;2023-11-22T04:55:57;7.40;99.90
19930;DHT22;10127;47.780;9.606;2023-11-22T04:58:24;7.40;99.90
19930;DHT22;10127;47.780;9.606;2023-11-22T05:00:50;7.40;99.90
19930;DHT22;10127;47.780;9.606;2023-11-22T05:03:15;7.40;99.90
19930;DHT22;10127;47.780;9.606;2023-11-22T05:05:41;7.30;99.90
19930;DHT22;10127;47.780;9.606;2023-11-22T05:08:06;7.20;99.90
19930;DHT22;10127;47.780;9.606;2023-11-22T05:10:32;7.10;99.90
19930;DHT22;10127;47.780;9.606;2023-11-22T05:12:57;7.10;99.90
19930;DHT22;10127;47.780;9.606;2023-11-22T05:15:26;7.00;99.90
19930;DHT22;10127;47.780;9.606;2023-11-22T05:17:52;6.90;99.90
19930;DHT22;10127;47.780;9.606;2023-11-22T05:20:18;6.80;99.90
19930;DHT22;10127;47.780;9.606;2023-11-22T05:22:43;6.70;99.90
19930;DHT22;10127;47.780;9.606;2023-11-22T05:25:09;6.70;99.90
19930;DHT22;10127;47.780;9.606;2023-11-22T05:27:34;6.90;99.90
19930;DHT22;10127;47.780;9.606;2023-11-22T05:30:00;7.10;99.90
19930;DHT22;10127;47.780;9.606;2023-11-22T05:32:27;7.20;99.90
19930;DHT22;10127;47.780;9.606;2023-11-22T05:34:52;6.90;99.90
19930;DHT22;10127;47.780;9.606;2023-11-22T05:37:18;7.10;99.90
19930;DHT22;10127;47.780;9.606;2023-11-22T05:39:44;7.20;99.90
19930;DHT22;10127;47.780;9.606;2023-11-22T05:42:10;7.20;99.90
19930;DHT22;10127;47.780;9.606;2023-11-22T05:44:36;7.40;99.90
19930;DHT22;10127;47.780;9.606;2023-11-22T05:47:02;7.40;99.90
19930;DHT22;10127;47.780;9.606;2023-11-22T05:49:27;7.20;99.90
19930;DHT22;10127;47.780;9.606;2023-11-22T05:51:53;7.10;99.90
19930;DHT22;10127;47.780;9.606;2023-11-22T05:54:19;6.80;99.90
19930;DHT22;10127;47.780;9.606;2023-11-22T05:56:44;6.60;99.90
19930;DHT22;10127;47.780;9.606;2023-11-22T05:59:10;6.60;99.90
19930;DHT22;10127;47.780;9.606;2023-11-22T06:01:36;6.50;99.90
19930;DHT22;10127;47.780;9.606;2023-11-22T06:04:01;6.50;99.90
19930;DHT22;10127;47.780;9.606;2023-11-22T06:06:28;6.60;99.90
19930;DHT22;10127;47.780;9.606;2023-11-22T06:08:54;6.70;99.90
19930;DHT22;10127;47.780;9.606;2023-11-22T06:11:20;6.60;99.90
19930;DHT22;10127;47.780;9.606;2023-11-22T06:13:46;6.60;99.90
19930;DHT22;10127;47.780;9.606;2023-11-22T06:16:12;6.70;99.90
19930;DHT22;10127;47.780;9.606;2023-11-22T06:18:38;6.60;99.90
19930;DHT22;10127;47.780;9.606;2023-11-22T06:21:09;6.60;99.90
19930;DHT22;10127;47.780;9.606;2023-11-22T06:23:34;6.60;99.90
19930;DHT22;10127;47.780;9.606;2023-11-22T06:26:00;6.70;99.90
19930;DHT22;10127;47.780;9.606;2023-11-22T06:28:26;6.80;99.90
19930;DHT22;10127;47.780;9.606;2023-11-22T06:30:52;6.90;99.90
19930;DHT22;10127;47.780;9.606;2023-11-22T06:33:18;6.90;99.90
19930;DHT22;10127;47.780;9.606;2023-11-22T06:35:44;6.80;99.90
19930;DHT22;10127;47.780;9.606;2023-11-22T06:38:09;6.80;99.90
19930;DHT22;10127;47.780;9.606;2023-11-22T06:40:35;6.70;99.90
19930;DHT22;10127;47.780;9.606;2023-11-22T06:43:01;6.70;99.90
19930;DHT22;10127;47.780;9.606;2023-11-22T06:45:26;6.70;99.90
19930;DHT22;10127;47.780;9.606;2023-11-22T06:47:52;6.50;99.90
19930;DHT22;10127;47.780;9.606;2023-11-22T06:50:18;6.50;99.90
19930;DHT22;10127;47.780;9.606;2023-11-22T06:52:43;6.40;99.90
19930;DHT22;10127;47.780;9.606;2023-11-22T06:55:10;6.30;99.90
19930;DHT22;10127;47.780;9.606;2023-11-22T06:57:36;6.40;99.90
19930;DHT22;10127;47.780;9.606;2023-11-22T07:00:03;6.70;99.90
19930;DHT22;10127;47.780;9.606;2023-11-22T07:02:34;6.60;99.90
19930;DHT22;10127;47.780;9.606;2023-11-22T07:05:03;6.50;99.90
19930;DHT22;10127;47.780;9.606;2023-11-22T07:07:33;6.60;99.90
19930;DHT22;10127;47.780;9.606;2023-11-22T07:09:59;6.60;99.90
19930;DHT22;10127;47.780;9.606;2023-11-22T07:12:25;6.70;99.90
19930;DHT22;10127;47.780;9.606;2023-11-22T07:14:50;6.60;99.90
19930;DHT22;10127;47.780;9.606;2023-11-22T07:17:16;6.80;99.90
19930;DHT22;10127;47.780;9.606;2023-11-22T07:19:43;6.80;99.90
19930;DHT22;10127;47.780;9.606;2023-11-22T07:22:21;6.70;99.90
19930;DHT22;10127;47.780;9.606;2023-11-22T07:24:48;6.80;99.90
19930;DHT22;10127;47.780;9.606;2023-11-22T07:27:19;6.90;99.90
19930;DHT22;10127;47.780;9.606;2023-11-22T07:29:45;6.90;99.90
19930;DHT22;10127;47.780;9.606;2023-11-22T07:32:11;6.80;99.90
19930;DHT22;10127;47.780;9.606;2023-11-22T07:34:38;6.70;99.90
19930;DHT22;10127;47.780;9.606;2023-11-22T07:37:09;6.60;99.90
19930;DHT22;10127;47.780;9.606;2023-11-22T07:39:35;6.70;99.90
19930;DHT22;10127;47.780;9.606;2023-11-22T07:42:05;6.70;99.90
19930;DHT22;10127;47.780;9.606;2023-11-22T07:44:33;6.80;99.90
19930;DHT22;10127;47.780;9.606;2023-11-22T07:47:01;6.70;99.90
19930;DHT22;10127;47.780;9.606;2023-11-22T07:49:28;6.80;99.90
19930;DHT22;10127;47.780;9.606;2023-11-22T07:51:56;6.90;99.90
19930;DHT22;10127;47.780;9.606;2023-11-22T07:54:22;6.80;99.90
19930;DHT22;10127;47.780;9.606;2023-11-22T07:56:49;6.80;99.90
19930;DHT22;10127;47.780;9.606;2023-11-22T07:59:14;6.80;99.90
19930;DHT22;10127;47.780;9.606;2023-11-22T08:01:44;6.80;99.90
19930;DHT22;10127;47.780;9.606;2023-11-22T08:04:10;6.70;99.90
19930;DHT22;10127;47.780;9.606;2023-11-22T08:06:36;6.90;99.90
19930;DHT22;10127;47.780;9.606;2023-11-22T08:09:02;6.90;99.90
19930;DHT22;10127;47.780;9.606;2023-11-22T08:11:29;6.90;99.90
19930;DHT22;10127;47.780;9.606;2023-11-22T08:13:55;6.80;99.90
19930;DHT22;10127;47.780;9.606;2023-11-22T08:16:25;6.80;99.90
19930;DHT22;10127;47.780;9.606;2023-11-22T08:18:51;6.80;99.90
19930;DHT22;10127;47.780;9.606;2023-11-22T08:21:17;6.40;99.90
19930;DHT22;10127;47.780;9.606;2023-11-22T08:23:43;6.40;99.90
19930;DHT22;10127;47.780;9.606;2023-11-22T08:26:10;6.60;99.90
19930;DHT22;10127;47.780;9.606;2023-11-22T08:28:37;6.30;99.90
19930;DHT22;10127;47.780;9.606;2023-11-22T08:31:03;5.90;99.90
19930;DHT22;10127;47.780;9.606;2023-11-22T08:33:38;5.80;99.90
19930;DHT22;10127;47.780;9.606;2023-11-22T08:36:08;5.80;99.90
19930;DHT22;10127;47.780;9.606;2023-11-22T08:38:34;5.70;99.90
19930;DHT22;10127;47.780;9.606;2023-11-22T08:41:03;5.60;99.90
19930;DHT22;10127;47.780;9.606;2023-11-22T08:43:31;5.50;99.90
19930;DHT22;10127;47.780;9.606;2023-11-22T08:45:58;5.60;99.90
19930;DHT22;10127;47.780;9.606;2023-11-22T08:48:24;6.00;99.90
19930;DHT22;10127;47.780;9.606;2023-11-22T08:50:49;5.90;99.90
19930;DHT22;10127;47.780;9.606;2023-11-22T08:53:15;5.80;99.90
19930;DHT22;10127;47.780;9.606;2023-11-22T08:55:42;5.80;99.90
19930;DHT22;10127;47.780;9.606;2023-11-22T08:58:10;5.80;99.90
19930;DHT22;10127;47.780;9.606;2023-11-22T09:00:35;5.60;99.90
19930;DHT22;10127;47.780;9.606;2023-11-22T09:03:01;5.60;99.90
19930;DHT22;10127;47.780;9.606;2023-11-22T09:05:28;5.70;99.90
19930;DHT22;10127;47.780;9.606;2023-11-22T09:07:54;5.70;99.90
19930;DHT22;10127;47.780;9.606;2023-11-22T09:10:24;5.90;99.90
19930;DHT22;10127;47.780;9.606;2023-11-22T09:12:50;5.90;99.90
19930;DHT22;10127;47.780;9.606;2023-11-22T09:15:16;5.90;99.90
19930;DHT22;10127;47.780;9.606;2023-11-22T09:17:44;6.00;99.90
19930;DHT22;10127;47.780;9.606;2023-11-22T09:20:12;5.50;99.90
19930;DHT22;10127;47.780;9.606;2023-11-22T09:22:51;5.40;99.90
19930;DHT22;10127;47.780;9.606;2023-11-22T09:25:19;5.20;99.90
19930;DHT22;10127;47.780;9.606;2023-11-22T09:27:45;5.20;99.90
19930;DHT22;10127;47.780;9.606;2023-11-22T09:30:13;5.40;99.90
19930;DHT22;10127;47.780;9.606;2023-11-22T09:33:02;5.70;99.90
19930;DHT22;10127;47.780;9.606;2023-11-22T09:35:28;6.20;99.90
19930;DHT22;10127;47.780;9.606;2023-11-22T09:38:02;6.40;99.90
19930;DHT22;10127;47.780;9.606;2023-11-22T09:40:28;6.10;99.90
19930;DHT22;10127;47.780;9.606;2023-11-22T09:43:01;6.30;99.90
19930;DHT22;10127;47.780;9.606;2023-11-22T09:45:29;6.40;99.90
19930;DHT22;10127;47.780;9.606;2023-11-22T09:47:56;6.30;99.90
19930;DHT22;10127;47.780;9.606;2023-11-22T09:53:50;6.10;99.90
19930;DHT22;10127;47.780;9.606;2023-11-22T09:56:17;6.10;99.90
19930;DHT22;10127;47.780;9.606;2023-11-22T09:58:44;6.00;99.90
19930;DHT22;10127;47.780;9.606;2023-11-22T10:01:11;6.10;99.90
19930;DHT22;10127;47.780;9.606;2023-11-22T10:03:39;6.20;99.90
19930;DHT22;10127;47.780;9.606;2023-11-22T10:06:05;6.40;99.90
19930;DHT22;10127;47.780;9.606;2023-11-22T10:08:31;6.40;99.90
19930;DHT22;10127;47.780;9.606;2023-11-22T10:10:57;6.30;99.90
19930;DHT22;10127;47.780;9.606;2023-11-22T10:13:23;6.20;99.90
19930;DHT22;10127;47.780;9.606;2023-11-22T10:15:49;6.50;99.90
19930;DHT22;10127;47.780;9.606;2023-11-22T10:18:15;6.80;99.90
19930;DHT22;10127;47.780;9.606;2023-11-22T10:20:44;7.00;99.90
19930;DHT22;10127;47.780;9.606;2023-11-22T10:23:13;6.80;99.90
19930;DHT22;10127;47.780;9.606;2023-11-22T10:25:46;6.90;99.90
19930;DHT22;10127;47.780;9.606;2023-11-22T10:28:22;6.70;99.90
19930;DHT22;10127;47.780;9.606;2023-11-22T10:30:50;6.70;99.90
19930;DHT22;10127;47.780;9.606;2023-11-22T10:33:17;6.60;99.90
19930;DHT22;10127;47.780;9.606;2023-11-22T10:35:46;6.50;99.90
19930;DHT22;10127;47.780;9.606;2023-11-22T10:38:15;6.80;99.90
19930;DHT22;10127;47.780;9.606;2023-11-22T10:40:41;6.90;99.90
19930;DHT22;10127;47.780;9.606;2023-11-22T10:43:11;6.80;99.90
19930;DHT22;10127;47.780;9.606;2023-11-22T10:45:37;6.60;99.90
19930;DHT22;10127;47.780;9.606;2023-11-22T10:48:04;6.80;99.90
19930;DHT22;10127;47.780;9.606;2023-11-22T10:50:31;6.70;99.90
19930;DHT22;10127;47.780;9.606;2023-11-22T10:52:58;6.70;99.90
19930;DHT22;10127;47.780;9.606;2023-11-22T10:55:32;7.00;99.90
19930;DHT22;10127;47.780;9.606;2023-11-22T10:58:03;7.20;99.90
19930;DHT22;10127;47.780;9.606;2023-11-22T11:00:32;7.40;99.90
19930;DHT22;10127;47.780;9.606;2023-11-22T11:03:07;7.20;99.90
19930;DHT22;10127;47.780;9.606;2023-11-22T11:05:35;7.20;99.90
19930;DHT22;10127;47.780;9.606;2023-11-22T11:08:14;6.90;99.90
19930;DHT22;10127;47.780;9.606;2023-11-22T11:10:45;6.90;99.90
19930;DHT22;10127;47.780;9.606;2023-11-22T11:13:11;7.00;99.90
19930;DHT22;10127;47.780;9.606;2023-11-22T11:15:39;6.80;99.90
19930;DHT22;10127;47.780;9.606;2023-11-22T11:18:13;7.10;99.90
19930;DHT22;10127;47.780;9.606;2023-11-22T11:20:52;7.10;99.90
19930;DHT22;10127;47.780;9.606;2023-11-22T11:23:26;6.90;99.90
19930;DHT22;10127;47.780;9.606;2023-11-22T11:25:54;7.00;99.90
19930;DHT22;10127;47.780;9.606;2023-11-22T11:28:20;7.30;99.90
19930;DHT22;10127;47.780;9.606;2023-11-22T11:30:50;7.10;99.90
19930;DHT22;10127;47.780;9.606;2023-11-22T11:35:49;6.60;99.90
19930;DHT22;10127;47.780;9.606;2023-11-22T11:38:19;6.40;99.90
19930;DHT22;10127;47.780;9.606;2023-11-22T11:40:52;6.30;99.90
19930;DHT22;10127;47.780;9.606;2023-11-22T11:43:45;6.10;99.90
19930;DHT22;10127;47.780;9.606;2023-11-22T11:46:11;6.40;99.90
19930;DHT22;10127;47.780;9.606;2023-11-22T11:48:37;6.30;99.90
19930;DHT22;10127;47.780;9.606;2023-11-22T11:51:04;6.50;99.90
19930;DHT22;10127;47.780;9.606;2023-11-22T11:53:32;6.40;99.90
19930;DHT22;10127;47.780;9.606;2023-11-22T11:55:58;6.40;99.90
19930;DHT22;10127;47.780;9.606;2023-11-22T11:58:24;6.40;99.90
19930;DHT22;10127;47.780;9.606;2023-11-22T12:00:54;6.50;99.90
19930;DHT22;10127;47.780;9.606;2023-11-22T12:03:20;6.50;99.90
19930;DHT22;10127;47.780;9.606;2023-11-22T12:05:47;6.40;99.90
19930;DHT22;10127;47.780;9.606;2023-11-22T12:08:14;6.40;99.90
19930;DHT22;10127;47.780;9.606;2023-11-22T12:10:41;6.40;99.90
19930;DHT22;10127;47.780;9.606;2023-11-22T12:13:07;6.00;99.90
19930;DHT22;10127;47.780;9.606;2023-11-22T12:15:34;6.00;99.90
19930;DHT22;10127;47.780;9.606;2023-11-22T12:18:00;6.10;99.90
19930;DHT22;10127;47.780;9.606;2023-11-22T12:20:27;6.00;99.90
19930;DHT22;10127;47.780;9.606;2023-11-22T12:22:57;5.70;99.90
19930;DHT22;10127;47.780;9.606;2023-11-22T12:25:27;5.60;99.90
19930;DHT22;10127;47.780;9.606;2023-11-22T12:27:54;5.90;99.90
19930;DHT22;10127;47.780;9.606;2023-11-22T12:30:31;5.60;99.90
19930;DHT22;10127;47.780;9.606;2023-11-22T12:32:57;5.60;99.90
19930;DHT22;10127;47.780;9.606;2023-11-22T12:35:23;5.70;99.90
19930;DHT22;10127;47.780;9.606;2023-11-22T12:37:49;5.70;99.90
19930;DHT22;10127;47.780;9.606;2023-11-22T12:40:15;5.60;99.90
19930;DHT22;10127;47.780;9.606;2023-11-22T12:42:50;6.00;99.90
19930;DHT22;10127;47.780;9.606;2023-11-22T12:45:26;6.10;99.90
19930;DHT22;10127;47.780;9.606;2023-11-22T12:47:54;6.50;99.90
19930;DHT22;10127;47.780;9.606;2023-11-22T12:50:38;6.40;99.90
19930;DHT22;10127;47.780;9.606;2023-11-22T12:53:12;6.60;99.90
19930;DHT22;10127;47.780;9.606;2023-11-22T12:55:50;6.10;99.90
19930;DHT22;10127;47.780;9.606;2023-11-22T12:58:17;5.90;99.90
19930;DHT22;10127;47.780;9.606;2023-11-22T13:00:47;5.70;99.90
19930;DHT22;10127;47.780;9.606;2023-11-22T13:03:19;5.50;99.90
19930;DHT22;10127;47.780;9.606;2023-11-22T13:05:52;5.50;99.90
19930;DHT22;10127;47.780;9.606;2023-11-22T13:08:17;5.40;99.90
19930;DHT22;10127;47.780;9.606;2023-11-22T13:10:44;5.50;99.90
19930;DHT22;10127;47.780;9.606;2023-11-22T13:13:12;5.30;99.90
19930;DHT22;10127;47.780;9.606;2023-11-22T13:15:38;5.40;99.90
19930;DHT22;10127;47.780;9.606;2023-11-22T13:18:08;5.30;99.90
19930;DHT22;10127;47.780;9.606;2023-11-22T13:20:35;5.50;99.90
19930;DHT22;10127;47.780;9.606;2023-11-22T13:23:01;5.50;99.90
19930;DHT22;10127;47.780;9.606;2023-11-22T13:25:28;5.60;99.90
19930;DHT22;10127;47.780;9.606;2023-11-22T13:27:54;5.50;99.90
19930;DHT22;10127;47.780;9.606;2023-11-22T13:30:22;5.70;99.90
19930;DHT22;10127;47.780;9.606;2023-11-22T13:32:54;5.80;99.90
19930;DHT22;10127;47.780;9.606;2023-11-22T13:35:22;5.90;99.90
19930;DHT22;10127;47.780;9.606;2023-11-22T13:37:48;6.00;99.90
19930;DHT22;10127;47.780;9.606;2023-11-22T13:40:17;6.10;99.90
19930;DHT22;10127;47.780;9.606;2023-11-22T13:42:47;6.10;99.90
19930;DHT22;10127;47.780;9.606;2023-11-22T13:45:14;6.00;99.90
19930;DHT22;10127;47.780;9.606;2023-11-22T13:47:47;5.80;99.90
19930;DHT22;10127;47.780;9.606;2023-11-22T13:50:20;6.00;99.90
19930;DHT22;10127;47.780;9.606;2023-11-22T13:52:54;6.10;99.90
19930;DHT22;10127;47.780;9.606;2023-11-22T13:55:26;5.90;99.90
19930;DHT22;10127;47.780;9.606;2023-11-22T13:58:00;5.90;99.90
19930;DHT22;10127;47.780;9.606;2023-11-22T14:00:28;6.00;99.90
19930;DHT22;10127;47.780;9.606;2023-11-22T14:02:58;6.10;99.90
19930;DHT22;10127;47.780;9.606;2023-11-22T14:05:30;5.90;99.90
19930;DHT22;10127;47.780;9.606;2023-11-22T14:07:55;6.00;99.90
19930;DHT22;10127;47.780;9.606;2023-11-22T14:10:21;6.00;99.90
19930;DHT22;10127;47.780;9.606;2023-11-22T14:12:48;5.90;99.90
19930;DHT22;10127;47.780;9.606;2023-11-22T14:15:14;6.10;99.90
19930;DHT22;10127;47.780;9.606;2023-11-22T14:17:41;5.90;99.90
19930;DHT22;10127;47.780;9.606;2023-11-22T14:20:07;6.00;99.90
19930;DHT22;10127;47.780;9.606;2023-11-22T14:22:35;6.00;99.90
19930;DHT22;10127;47.780;9.606;2023-11-22T14:25:01;6.10;99.90
19930;DHT22;10127;47.780;9.606;2023-11-22T14:27:27;6.10;99.90
19930;DHT22;10127;47.780;9.606;2023-11-22T14:29:54;6.00;99.90
19930;DHT22;10127;47.780;9.606;2023-11-22T14:32:20;6.00;99.90
19930;DHT22;10127;47.780;9.606;2023-11-22T14:34:48;5.70;99.90
19930;DHT22;10127;47.780;9.606;2023-11-22T14:37:14;5.70;99.90
19930;DHT22;10127;47.780;9.606;2023-11-22T14:39:41;5.70;99.90
19930;DHT22;10127;47.780;9.606;2023-11-22T14:42:06;5.70;99.90
19930;DHT22;10127;47.780;9.606;2023-11-22T14:44:33;5.70;99.90
19930;DHT22;10127;47.780;9.606;2023-11-22T14:47:00;5.60;99.90
19930;DHT22;10127;47.780;9.606;2023-11-22T14:49:31;5.80;99.90
19930;DHT22;10127;47.780;9.606;2023-11-22T14:51:57;5.60;99.90
19930;DHT22;10127;47.780;9.606;2023-11-22T14:54:22;5.20;99.90
19930;DHT22;10127;47.780;9.606;2023-11-22T14:56:48;5.20;99.90
19930;DHT22;10127;47.780;9.606;2023-11-22T14:59:15;5.20;99.90
19930;DHT22;10127;47.780;9.606;2023-11-22T15:01:42;5.00;99.90
19930;DHT22;10127;47.780;9.606;2023-11-22T15:04:09;5.10;99.90
19930;DHT22;10127;47.780;9.606;2023-11-22T15:06:36;5.00;99.90
19930;DHT22;10127;47.780;9.606;2023-11-22T15:09:02;5.20;99.90
19930;DHT22;10127;47.780;9.606;2023-11-22T15:11:36;5.10;99.90
19930;DHT22;10127;47.780;9.606;2023-11-22T15:14:03;5.00;99.90
19930;DHT22;10127;47.780;9.606;2023-11-22T15:16:28;5.00;99.90
19930;DHT22;10127;47.780;9.606;2023-11-22T15:18:54;5.10;99.90
19930;DHT22;10127;47.780;9.606;2023-11-22T15:21:20;5.20;99.90
19930;DHT22;10127;47.780;9.606;2023-11-22T15:23:45;5.50;99.90
19930;DHT22;10127;47.780;9.606;2023-11-22T15:26:12;5.40;99.90
19930;DHT22;10127;47.780;9.606;2023-11-22T15:28:38;5.40;99.90
19930;DHT22;10127;47.780;9.606;2023-11-22T15:31:03;5.40;99.90
19930;DHT22;10127;47.780;9.606;2023-11-22T15:33:30;5.10;99.90
19930;DHT22;10127;47.780;9.606;2023-11-22T15:35:56;4.90;99.90
19930;DHT22;10127;47.780;9.606;2023-11-22T15:38:21;4.70;99.90
19930;DHT22;10127;47.780;9.606;2023-11-22T15:40:48;4.70;99.90
19930;DHT22;10127;47.780;9.606;2023-11-22T15:43:14;4.90;99.90
19930;DHT22;10127;47.780;9.606;2023-11-22T15:45:41;4.80;99.90
19930;DHT22;10127;47.780;9.606;2023-11-22T15:48:08;4.50;99.90
19930;DHT22;10127;47.780;9.606;2023-11-22T15:50:34;4.50;99.90